sensor_id;sensor_type;location;lat;lon;timestamp;P1;durP1;ratioP1;P2;durP2;ratioP2
25780;SDS011;13626;48.128;11.628;2022-12-18T00:00:49;49.05;;;17.52;;
25780;SDS011;13626;48.128;11.628;2022-12-18T00:03:16;47.83;;;18.42;;
25780;SDS011;13626;48.128;11.628;2022-12-18T00:05:48;56.28;;;20.00;;
25780;SDS011;13626;48.128;11.628;2022-12-18T00:08:15;62.30;;;20.98;;
25780;SDS011;13626;48.128;11.628;2022-12-18T00:10:43;52.08;;;19.40;;
25780;SDS011;13626;48.128;11.628;2022-12-18T00:13:10;54.85;;;19.13;;
25780;SDS011;13626;48.128;11.628;2022-12-18T00:15:38;61.80;;;19.60;;
25780;SDS011;13626;48.128;11.628;2022-12-18T00:18:06;52.60;;;18.85;;
25780;SDS011;13626;48.128;11.628;2022-12-18T00:20:37;56.97;;;18.38;;
25780;SDS011;13626;48.128;11.628;2022-12-18T00:23:04;54.22;;;19.60;;
25780;SDS011;13626;48.128;11.628;2022-12-18T00:25:33;61.47;;;20.17;;
25780;SDS011;13626;48.128;11.628;2022-12-18T00:28:01;52.85;;;17.48;;
25780;SDS011;13626;48.128;11.628;2022-12-18T00:30:28;52.40;;;18.25;;
25780;SDS011;13626;48.128;11.628;2022-12-18T00:32:56;56.00;;;17.77;;
25780;SDS011;13626;48.128;11.628;2022-12-18T00:35:24;49.03;;;17.92;;
25780;SDS011;13626;48.128;11.628;2022-12-18T00:37:51;48.15;;;17.88;;
25780;SDS011;13626;48.128;11.628;2022-12-18T00:40:18;44.65;;;16.30;;
25780;SDS011;13626;48.128;11.628;2022-12-18T00:42:45;44.08;;;17.20;;
25780;SDS011;13626;48.128;11.628;2022-12-18T00:45:26;46.08;;;15.85;;
25780;SDS011;13626;48.128;11.628;2022-12-18T00:47:54;45.45;;;16.55;;
25780;SDS011;13626;48.128;11.628;2022-12-18T00:50:21;50.35;;;17.80;;
25780;SDS011;13626;48.128;11.628;2022-12-18T00:52:49;50.20;;;16.90;;
25780;SDS011;13626;48.128;11.628;2022-12-18T00:55:16;47.30;;;17.13;;
25780;SDS011;13626;48.128;11.628;2022-12-18T00:57:43;47.97;;;17.48;;
25780;SDS011;13626;48.128;11.628;2022-12-18T01:00:12;48.03;;;16.65;;
25780;SDS011;13626;48.128;11.628;2022-12-18T01:02:40;56.47;;;16.90;;
25780;SDS011;13626;48.128;11.628;2022-12-18T01:05:08;49.78;;;17.20;;
25780;SDS011;13626;48.128;11.628;2022-12-18T01:07:36;50.55;;;16.95;;
25780;SDS011;13626;48.128;11.628;2022-12-18T01:10:04;56.80;;;18.08;;
25780;SDS011;13626;48.128;11.628;2022-12-18T01:12:31;52.05;;;19.98;;
25780;SDS011;13626;48.128;11.628;2022-12-18T01:14:59;49.05;;;17.95;;
25780;SDS011;13626;48.128;11.628;2022-12-18T01:17:26;52.38;;;18.10;;
25780;SDS011;13626;48.128;11.628;2022-12-18T01:19:53;57.33;;;18.17;;
25780;SDS011;13626;48.128;11.628;2022-12-18T01:22:20;55.03;;;18.20;;
25780;SDS011;13626;48.128;11.628;2022-12-18T01:24:47;58.08;;;19.55;;
25780;SDS011;13626;48.128;11.628;2022-12-18T01:27:14;52.63;;;18.48;;
25780;SDS011;13626;48.128;11.628;2022-12-18T01:29:42;51.78;;;18.23;;
25780;SDS011;13626;48.128;11.628;2022-12-18T01:32:09;52.30;;;18.50;;
25780;SDS011;13626;48.128;11.628;2022-12-18T01:34:36;57.88;;;20.08;;
25780;SDS011;13626;48.128;11.628;2022-12-18T01:37:04;57.53;;;19.15;;
25780;SDS011;13626;48.128;11.628;2022-12-18T01:39:31;60.67;;;19.95;;
25780;SDS011;13626;48.128;11.628;2022-12-18T01:41:59;58.92;;;19.23;;
25780;SDS011;13626;48.128;11.628;2022-12-18T01:50:19;50.33;;;19.85;;
25780;SDS011;13626;48.128;11.628;2022-12-18T01:52:49;54.45;;;19.08;;
25780;SDS011;13626;48.128;11.628;2022-12-18T01:55:18;54.85;;;18.58;;
25780;SDS011;13626;48.128;11.628;2022-12-18T01:57:46;54.30;;;19.30;;
25780;SDS011;13626;48.128;11.628;2022-12-18T02:00:15;49.42;;;18.92;;
25780;SDS011;13626;48.128;11.628;2022-12-18T02:02:43;52.58;;;19.77;;
25780;SDS011;13626;48.128;11.628;2022-12-18T02:05:11;54.10;;;20.08;;
25780;SDS011;13626;48.128;11.628;2022-12-18T02:08:01;56.53;;;19.77;;
25780;SDS011;13626;48.128;11.628;2022-12-18T02:18:28;56.90;;;20.05;;
25780;SDS011;13626;48.128;11.628;2022-12-18T02:23:46;57.83;;;20.27;;
25780;SDS011;13626;48.128;11.628;2022-12-18T02:28:42;62.30;;;21.35;;
25780;SDS011;13626;48.128;11.628;2022-12-18T02:31:13;59.97;;;20.02;;
25780;SDS011;13626;48.128;11.628;2022-12-18T02:33:41;60.67;;;20.25;;
25780;SDS011;13626;48.128;11.628;2022-12-18T02:36:10;61.72;;;20.60;;
25780;SDS011;13626;48.128;11.628;2022-12-18T02:38:37;55.88;;;19.80;;
25780;SDS011;13626;48.128;11.628;2022-12-18T02:41:05;57.20;;;19.42;;
25780;SDS011;13626;48.128;11.628;2022-12-18T02:43:33;57.22;;;19.70;;
25780;SDS011;13626;48.128;11.628;2022-12-18T02:46:00;58.95;;;20.48;;
25780;SDS011;13626;48.128;11.628;2022-12-18T02:48:31;61.22;;;19.90;;
25780;SDS011;13626;48.128;11.628;2022-12-18T02:51:03;59.35;;;21.30;;
25780;SDS011;13626;48.128;11.628;2022-12-18T02:53:36;64.22;;;22.40;;
25780;SDS011;13626;48.128;11.628;2022-12-18T02:56:09;53.65;;;19.00;;
25780;SDS011;13626;48.128;11.628;2022-12-18T03:01:25;54.05;;;19.05;;
25780;SDS011;13626;48.128;11.628;2022-12-18T03:03:56;56.20;;;19.52;;
25780;SDS011;13626;48.128;11.628;2022-12-18T03:06:40;65.93;;;21.65;;
25780;SDS011;13626;48.128;11.628;2022-12-18T03:09:13;56.17;;;19.63;;
25780;SDS011;13626;48.128;11.628;2022-12-18T03:11:41;60.50;;;20.92;;
25780;SDS011;13626;48.128;11.628;2022-12-18T03:14:28;59.05;;;19.20;;
25780;SDS011;13626;48.128;11.628;2022-12-18T03:16:59;55.33;;;20.15;;
25780;SDS011;13626;48.128;11.628;2022-12-18T03:19:28;52.65;;;19.48;;
25780;SDS011;13626;48.128;11.628;2022-12-18T03:21:56;52.42;;;19.98;;
25780;SDS011;13626;48.128;11.628;2022-12-18T03:24:25;52.15;;;19.05;;
25780;SDS011;13626;48.128;11.628;2022-12-18T03:26:54;53.90;;;20.20;;
25780;SDS011;13626;48.128;11.628;2022-12-18T03:29:26;65.53;;;20.58;;
25780;SDS011;13626;48.128;11.628;2022-12-18T03:31:55;57.17;;;20.60;;
25780;SDS011;13626;48.128;11.628;2022-12-18T03:34:27;55.00;;;20.10;;
25780;SDS011;13626;48.128;11.628;2022-12-18T03:36:55;54.63;;;19.83;;
25780;SDS011;13626;48.128;11.628;2022-12-18T03:39:22;49.30;;;19.65;;
25780;SDS011;13626;48.128;11.628;2022-12-18T03:41:51;52.78;;;18.85;;
25780;SDS011;13626;48.128;11.628;2022-12-18T03:47:08;53.63;;;18.77;;
25780;SDS011;13626;48.128;11.628;2022-12-18T03:49:46;57.65;;;19.40;;
25780;SDS011;13626;48.128;11.628;2022-12-18T03:52:19;50.83;;;18.83;;
25780;SDS011;13626;48.128;11.628;2022-12-18T03:54:47;51.42;;;18.52;;
25780;SDS011;13626;48.128;11.628;2022-12-18T03:57:21;51.38;;;18.23;;
25780;SDS011;13626;48.128;11.628;2022-12-18T04:02:17;50.55;;;17.52;;
25780;SDS011;13626;48.128;11.628;2022-12-18T04:04:45;55.22;;;19.30;;
25780;SDS011;13626;48.128;11.628;2022-12-18T04:07:14;57.30;;;18.35;;
25780;SDS011;13626;48.128;11.628;2022-12-18T04:09:41;53.70;;;19.45;;
25780;SDS011;13626;48.128;11.628;2022-12-18T04:12:09;53.00;;;18.02;;
25780;SDS011;13626;48.128;11.628;2022-12-18T04:14:36;55.65;;;20.17;;
25780;SDS011;13626;48.128;11.628;2022-12-18T04:17:04;58.03;;;19.45;;
25780;SDS011;13626;48.128;11.628;2022-12-18T04:19:31;54.35;;;18.98;;
25780;SDS011;13626;48.128;11.628;2022-12-18T04:21:58;50.78;;;17.98;;
25780;SDS011;13626;48.128;11.628;2022-12-18T04:24:25;52.20;;;18.55;;
25780;SDS011;13626;48.128;11.628;2022-12-18T04:26:52;50.90;;;18.45;;
25780;SDS011;13626;48.128;11.628;2022-12-18T04:29:19;45.83;;;17.88;;
25780;SDS011;13626;48.128;11.628;2022-12-18T04:31:47;54.90;;;19.02;;
25780;SDS011;13626;48.128;11.628;2022-12-18T04:34:14;46.50;;;18.70;;
25780;SDS011;13626;48.128;11.628;2022-12-18T04:36:41;51.80;;;19.00;;
25780;SDS011;13626;48.128;11.628;2022-12-18T04:39:08;45.92;;;17.52;;
25780;SDS011;13626;48.128;11.628;2022-12-18T04:41:35;49.70;;;18.35;;
25780;SDS011;13626;48.128;11.628;2022-12-18T04:44:03;40.83;;;16.33;;
25780;SDS011;13626;48.128;11.628;2022-12-18T04:46:30;49.75;;;18.42;;
25780;SDS011;13626;48.128;11.628;2022-12-18T04:48:58;50.55;;;17.08;;
25780;SDS011;13626;48.128;11.628;2022-12-18T04:51:25;46.28;;;16.55;;
25780;SDS011;13626;48.128;11.628;2022-12-18T04:53:52;50.25;;;18.23;;
25780;SDS011;13626;48.128;11.628;2022-12-18T04:56:19;47.90;;;17.48;;
25780;SDS011;13626;48.128;11.628;2022-12-18T04:58:47;55.85;;;17.77;;
25780;SDS011;13626;48.128;11.628;2022-12-18T05:01:15;53.00;;;18.48;;
25780;SDS011;13626;48.128;11.628;2022-12-18T05:03:42;53.42;;;17.67;;
25780;SDS011;13626;48.128;11.628;2022-12-18T05:06:10;50.17;;;18.10;;
25780;SDS011;13626;48.128;11.628;2022-12-18T05:08:38;51.20;;;18.42;;
25780;SDS011;13626;48.128;11.628;2022-12-18T05:11:10;45.70;;;17.65;;
25780;SDS011;13626;48.128;11.628;2022-12-18T05:13:38;50.53;;;18.20;;
25780;SDS011;13626;48.128;11.628;2022-12-18T05:16:06;49.10;;;17.63;;
25780;SDS011;13626;48.128;11.628;2022-12-18T05:18:33;50.00;;;18.77;;
25780;SDS011;13626;48.128;11.628;2022-12-18T05:21:01;50.38;;;18.45;;
25780;SDS011;13626;48.128;11.628;2022-12-18T05:23:28;53.15;;;17.98;;
25780;SDS011;13626;48.128;11.628;2022-12-18T05:25:59;46.50;;;18.02;;
25780;SDS011;13626;48.128;11.628;2022-12-18T05:28:27;45.75;;;17.17;;
25780;SDS011;13626;48.128;11.628;2022-12-18T05:30:55;48.22;;;17.02;;
25780;SDS011;13626;48.128;11.628;2022-12-18T05:33:24;45.40;;;17.20;;
25780;SDS011;13626;48.128;11.628;2022-12-18T05:35:52;52.20;;;17.33;;
25780;SDS011;13626;48.128;11.628;2022-12-18T05:38:22;50.35;;;17.85;;
25780;SDS011;13626;48.128;11.628;2022-12-18T05:40:50;46.17;;;17.85;;
25780;SDS011;13626;48.128;11.628;2022-12-18T05:43:18;44.42;;;16.35;;
25780;SDS011;13626;48.128;11.628;2022-12-18T05:45:47;49.08;;;18.20;;
25780;SDS011;13626;48.128;11.628;2022-12-18T05:48:14;43.20;;;16.92;;
25780;SDS011;13626;48.128;11.628;2022-12-18T05:50:43;48.25;;;16.90;;
25780;SDS011;13626;48.128;11.628;2022-12-18T05:53:15;44.95;;;16.70;;
25780;SDS011;13626;48.128;11.628;2022-12-18T05:55:43;50.63;;;17.92;;
25780;SDS011;13626;48.128;11.628;2022-12-18T05:58:11;45.33;;;15.85;;
25780;SDS011;13626;48.128;11.628;2022-12-18T06:00:39;39.45;;;14.45;;
25780;SDS011;13626;48.128;11.628;2022-12-18T06:03:07;39.30;;;14.82;;
25780;SDS011;13626;48.128;11.628;2022-12-18T06:05:36;42.00;;;15.52;;
25780;SDS011;13626;48.128;11.628;2022-12-18T06:08:03;42.05;;;16.27;;
25780;SDS011;13626;48.128;11.628;2022-12-18T06:10:30;40.58;;;16.05;;
25780;SDS011;13626;48.128;11.628;2022-12-18T06:12:58;44.08;;;14.90;;
25780;SDS011;13626;48.128;11.628;2022-12-18T06:15:25;44.03;;;15.18;;
25780;SDS011;13626;48.128;11.628;2022-12-18T06:17:52;44.75;;;16.95;;
25780;SDS011;13626;48.128;11.628;2022-12-18T06:20:19;45.05;;;15.30;;
25780;SDS011;13626;48.128;11.628;2022-12-18T06:22:47;42.83;;;14.68;;
25780;SDS011;13626;48.128;11.628;2022-12-18T06:25:14;47.13;;;14.88;;
25780;SDS011;13626;48.128;11.628;2022-12-18T06:27:42;39.58;;;14.52;;
25780;SDS011;13626;48.128;11.628;2022-12-18T06:30:09;40.63;;;13.68;;
25780;SDS011;13626;48.128;11.628;2022-12-18T06:32:37;42.92;;;14.98;;
25780;SDS011;13626;48.128;11.628;2022-12-18T06:35:05;44.80;;;14.77;;
25780;SDS011;13626;48.128;11.628;2022-12-18T06:37:32;40.58;;;15.70;;
25780;SDS011;13626;48.128;11.628;2022-12-18T06:39:59;41.70;;;17.17;;
25780;SDS011;13626;48.128;11.628;2022-12-18T06:42:27;44.80;;;16.33;;
25780;SDS011;13626;48.128;11.628;2022-12-18T06:44:55;45.22;;;16.02;;
25780;SDS011;13626;48.128;11.628;2022-12-18T06:47:22;43.92;;;15.88;;
25780;SDS011;13626;48.128;11.628;2022-12-18T06:49:49;42.53;;;16.02;;
25780;SDS011;13626;48.128;11.628;2022-12-18T06:52:16;46.55;;;16.98;;
25780;SDS011;13626;48.128;11.628;2022-12-18T06:54:44;49.10;;;17.70;;
25780;SDS011;13626;48.128;11.628;2022-12-18T06:57:11;43.50;;;15.93;;
25780;SDS011;13626;48.128;11.628;2022-12-18T06:59:38;42.60;;;15.75;;
25780;SDS011;13626;48.128;11.628;2022-12-18T07:02:05;40.58;;;15.23;;
25780;SDS011;13626;48.128;11.628;2022-12-18T07:04:32;42.90;;;15.60;;
25780;SDS011;13626;48.128;11.628;2022-12-18T07:07:00;36.88;;;15.35;;
25780;SDS011;13626;48.128;11.628;2022-12-18T07:09:27;38.10;;;15.05;;
25780;SDS011;13626;48.128;11.628;2022-12-18T07:11:54;42.20;;;15.18;;
25780;SDS011;13626;48.128;11.628;2022-12-18T07:14:23;41.20;;;13.95;;
25780;SDS011;13626;48.128;11.628;2022-12-18T07:16:50;44.45;;;16.25;;
25780;SDS011;13626;48.128;11.628;2022-12-18T07:19:17;44.42;;;15.60;;
25780;SDS011;13626;48.128;11.628;2022-12-18T07:21:44;45.88;;;17.50;;
25780;SDS011;13626;48.128;11.628;2022-12-18T07:24:11;40.72;;;15.00;;
25780;SDS011;13626;48.128;11.628;2022-12-18T07:26:39;37.80;;;14.95;;
25780;SDS011;13626;48.128;11.628;2022-12-18T07:29:06;35.13;;;13.65;;
25780;SDS011;13626;48.128;11.628;2022-12-18T07:31:33;38.72;;;13.00;;
25780;SDS011;13626;48.128;11.628;2022-12-18T07:34:00;38.22;;;14.32;;
25780;SDS011;13626;48.128;11.628;2022-12-18T07:36:28;41.63;;;14.43;;
25780;SDS011;13626;48.128;11.628;2022-12-18T07:38:55;38.80;;;14.27;;
25780;SDS011;13626;48.128;11.628;2022-12-18T07:41:22;34.25;;;13.60;;
25780;SDS011;13626;48.128;11.628;2022-12-18T07:43:49;39.40;;;14.27;;
25780;SDS011;13626;48.128;11.628;2022-12-18T07:46:17;35.08;;;14.20;;
25780;SDS011;13626;48.128;11.628;2022-12-18T07:48:44;36.88;;;13.77;;
25780;SDS011;13626;48.128;11.628;2022-12-18T07:51:15;34.95;;;14.07;;
25780;SDS011;13626;48.128;11.628;2022-12-18T07:53:43;36.67;;;13.60;;
25780;SDS011;13626;48.128;11.628;2022-12-18T07:56:11;40.08;;;13.80;;
25780;SDS011;13626;48.128;11.628;2022-12-18T07:58:56;39.72;;;14.32;;
25780;SDS011;13626;48.128;11.628;2022-12-18T08:01:24;34.45;;;14.35;;
25780;SDS011;13626;48.128;11.628;2022-12-18T08:03:51;39.28;;;14.63;;
25780;SDS011;13626;48.128;11.628;2022-12-18T08:06:19;36.85;;;14.07;;
25780;SDS011;13626;48.128;11.628;2022-12-18T08:08:50;40.58;;;14.90;;
25780;SDS011;13626;48.128;11.628;2022-12-18T08:11:17;36.80;;;12.32;;
25780;SDS011;13626;48.128;11.628;2022-12-18T08:13:45;35.75;;;13.68;;
25780;SDS011;13626;48.128;11.628;2022-12-18T08:16:12;36.40;;;13.90;;
25780;SDS011;13626;48.128;11.628;2022-12-18T08:18:39;33.35;;;13.85;;
25780;SDS011;13626;48.128;11.628;2022-12-18T08:21:09;36.20;;;14.57;;
25780;SDS011;13626;48.128;11.628;2022-12-18T08:23:37;33.08;;;12.95;;
25780;SDS011;13626;48.128;11.628;2022-12-18T08:26:08;33.03;;;12.98;;
25780;SDS011;13626;48.128;11.628;2022-12-18T08:28:36;35.90;;;13.07;;
25780;SDS011;13626;48.128;11.628;2022-12-18T08:31:03;34.75;;;13.82;;
25780;SDS011;13626;48.128;11.628;2022-12-18T08:33:31;30.77;;;12.63;;
25780;SDS011;13626;48.128;11.628;2022-12-18T08:35:58;33.08;;;13.18;;
25780;SDS011;13626;48.128;11.628;2022-12-18T08:38:26;35.63;;;12.23;;
25780;SDS011;13626;48.128;11.628;2022-12-18T08:41:03;28.13;;;12.45;;
25780;SDS011;13626;48.128;11.628;2022-12-18T08:43:30;36.83;;;13.23;;
25780;SDS011;13626;48.128;11.628;2022-12-18T08:46:16;29.70;;;11.85;;
25780;SDS011;13626;48.128;11.628;2022-12-18T08:48:44;27.65;;;12.23;;
25780;SDS011;13626;48.128;11.628;2022-12-18T08:51:11;35.70;;;13.13;;
25780;SDS011;13626;48.128;11.628;2022-12-18T08:53:39;33.58;;;12.43;;
25780;SDS011;13626;48.128;11.628;2022-12-18T08:56:07;31.70;;;12.82;;
25780;SDS011;13626;48.128;11.628;2022-12-18T08:58:34;31.45;;;12.32;;
25780;SDS011;13626;48.128;11.628;2022-12-18T09:01:05;30.85;;;12.85;;
25780;SDS011;13626;48.128;11.628;2022-12-18T09:03:33;31.70;;;12.20;;
25780;SDS011;13626;48.128;11.628;2022-12-18T09:06:00;34.63;;;12.57;;
25780;SDS011;13626;48.128;11.628;2022-12-18T09:08:27;32.60;;;12.35;;
25780;SDS011;13626;48.128;11.628;2022-12-18T09:10:55;31.67;;;12.45;;
25780;SDS011;13626;48.128;11.628;2022-12-18T09:13:22;33.38;;;12.60;;
25780;SDS011;13626;48.128;11.628;2022-12-18T09:15:51;31.05;;;12.65;;
25780;SDS011;13626;48.128;11.628;2022-12-18T09:18:19;32.05;;;12.57;;
25780;SDS011;13626;48.128;11.628;2022-12-18T09:20:47;32.50;;;11.95;;
25780;SDS011;13626;48.128;11.628;2022-12-18T09:23:14;35.92;;;12.20;;
25780;SDS011;13626;48.128;11.628;2022-12-18T09:25:41;32.35;;;12.13;;
25780;SDS011;13626;48.128;11.628;2022-12-18T09:28:12;31.77;;;12.43;;
25780;SDS011;13626;48.128;11.628;2022-12-18T09:30:41;32.63;;;12.63;;
25780;SDS011;13626;48.128;11.628;2022-12-18T09:33:08;34.35;;;12.40;;
25780;SDS011;13626;48.128;11.628;2022-12-18T09:35:36;30.00;;;12.32;;
25780;SDS011;13626;48.128;11.628;2022-12-18T09:38:07;32.92;;;12.75;;
25780;SDS011;13626;48.128;11.628;2022-12-18T09:40:36;35.72;;;13.25;;
25780;SDS011;13626;48.128;11.628;2022-12-18T09:43:06;32.97;;;12.73;;
25780;SDS011;13626;48.128;11.628;2022-12-18T09:45:44;31.30;;;12.20;;
25780;SDS011;13626;48.128;11.628;2022-12-18T09:48:17;29.15;;;12.82;;
25780;SDS011;13626;48.128;11.628;2022-12-18T09:50:45;32.92;;;13.43;;
25780;SDS011;13626;48.128;11.628;2022-12-18T09:53:18;30.50;;;12.35;;
25780;SDS011;13626;48.128;11.628;2022-12-18T09:55:47;31.42;;;12.43;;
25780;SDS011;13626;48.128;11.628;2022-12-18T09:58:39;32.53;;;12.50;;
25780;SDS011;13626;48.128;11.628;2022-12-18T10:01:07;33.67;;;12.95;;
25780;SDS011;13626;48.128;11.628;2022-12-18T10:03:36;28.95;;;12.18;;
25780;SDS011;13626;48.128;11.628;2022-12-18T10:07:06;30.10;;;12.27;;
25780;SDS011;13626;48.128;11.628;2022-12-18T10:14:04;36.33;;;13.52;;
25780;SDS011;13626;48.128;11.628;2022-12-18T10:16:47;26.73;;;10.30;;
25780;SDS011;13626;48.128;11.628;2022-12-18T10:19:24;28.25;;;11.43;;
25780;SDS011;13626;48.128;11.628;2022-12-18T10:26:47;30.70;;;12.52;;
25780;SDS011;13626;48.128;11.628;2022-12-18T10:29:15;30.85;;;12.68;;
25780;SDS011;13626;48.128;11.628;2022-12-18T10:31:42;27.10;;;11.55;;
25780;SDS011;13626;48.128;11.628;2022-12-18T10:34:10;30.38;;;12.48;;
25780;SDS011;13626;48.128;11.628;2022-12-18T10:36:41;31.77;;;11.98;;
25780;SDS011;13626;48.128;11.628;2022-12-18T10:39:22;26.63;;;12.43;;
25780;SDS011;13626;48.128;11.628;2022-12-18T10:41:50;29.50;;;11.90;;
25780;SDS011;13626;48.128;11.628;2022-12-18T10:44:21;29.20;;;11.25;;
25780;SDS011;13626;48.128;11.628;2022-12-18T10:46:49;30.10;;;13.07;;
25780;SDS011;13626;48.128;11.628;2022-12-18T10:49:25;28.48;;;11.88;;
25780;SDS011;13626;48.128;11.628;2022-12-18T10:52:15;29.95;;;11.70;;
25780;SDS011;13626;48.128;11.628;2022-12-18T10:54:40;32.58;;;11.75;;
25780;SDS011;13626;48.128;11.628;2022-12-18T10:57:14;27.90;;;11.63;;
25780;SDS011;13626;48.128;11.628;2022-12-18T11:02:23;26.98;;;11.07;;
25780;SDS011;13626;48.128;11.628;2022-12-18T11:04:52;29.10;;;12.10;;
25780;SDS011;13626;48.128;11.628;2022-12-18T11:07:19;28.90;;;11.80;;
25780;SDS011;13626;48.128;11.628;2022-12-18T11:09:50;29.92;;;11.10;;
25780;SDS011;13626;48.128;11.628;2022-12-18T11:12:29;29.13;;;11.90;;
25780;SDS011;13626;48.128;11.628;2022-12-18T11:14:56;29.55;;;12.25;;
25780;SDS011;13626;48.128;11.628;2022-12-18T11:17:31;27.25;;;11.05;;
25780;SDS011;13626;48.128;11.628;2022-12-18T11:20:07;31.42;;;12.52;;
25780;SDS011;13626;48.128;11.628;2022-12-18T11:22:54;27.98;;;11.70;;
25780;SDS011;13626;48.128;11.628;2022-12-18T11:25:22;27.65;;;11.85;;
25780;SDS011;13626;48.128;11.628;2022-12-18T11:28:04;27.80;;;12.13;;
25780;SDS011;13626;48.128;11.628;2022-12-18T11:30:33;25.33;;;11.77;;
25780;SDS011;13626;48.128;11.628;2022-12-18T11:33:09;29.35;;;12.05;;
25780;SDS011;13626;48.128;11.628;2022-12-18T11:35:46;28.58;;;11.60;;
25780;SDS011;13626;48.128;11.628;2022-12-18T11:38:31;24.95;;;11.70;;
25780;SDS011;13626;48.128;11.628;2022-12-18T11:43:38;24.77;;;11.02;;
25780;SDS011;13626;48.128;11.628;2022-12-18T11:46:09;24.70;;;11.43;;
25780;SDS011;13626;48.128;11.628;2022-12-18T11:48:46;34.28;;;11.73;;
25780;SDS011;13626;48.128;11.628;2022-12-18T11:51:36;28.50;;;13.30;;
25780;SDS011;13626;48.128;11.628;2022-12-18T11:54:09;32.33;;;12.55;;
25780;SDS011;13626;48.128;11.628;2022-12-18T12:01:59;35.08;;;14.07;;
25780;SDS011;13626;48.128;11.628;2022-12-18T12:07:11;27.98;;;11.30;;
25780;SDS011;13626;48.128;11.628;2022-12-18T12:12:31;28.00;;;11.85;;
25780;SDS011;13626;48.128;11.628;2022-12-18T12:15:20;31.05;;;11.90;;
25780;SDS011;13626;48.128;11.628;2022-12-18T12:18:13;31.50;;;13.27;;
25780;SDS011;13626;48.128;11.628;2022-12-18T12:26:01;29.33;;;11.63;;
25780;SDS011;13626;48.128;11.628;2022-12-18T12:39:05;25.20;;;10.57;;
25780;SDS011;13626;48.128;11.628;2022-12-18T12:41:33;29.55;;;11.57;;
25780;SDS011;13626;48.128;11.628;2022-12-18T12:44:27;25.17;;;10.90;;
25780;SDS011;13626;48.128;11.628;2022-12-18T12:46:56;26.40;;;11.43;;
25780;SDS011;13626;48.128;11.628;2022-12-18T12:49:25;30.92;;;11.88;;
25780;SDS011;13626;48.128;11.628;2022-12-18T12:51:57;26.30;;;11.88;;
25780;SDS011;13626;48.128;11.628;2022-12-18T12:54:28;29.73;;;12.65;;
25780;SDS011;13626;48.128;11.628;2022-12-18T13:02:21;31.20;;;12.05;;
25780;SDS011;13626;48.128;11.628;2022-12-18T13:12:32;28.08;;;12.20;;
25780;SDS011;13626;48.128;11.628;2022-12-18T13:23:29;31.25;;;12.30;;
25780;SDS011;13626;48.128;11.628;2022-12-18T13:31:12;31.55;;;13.23;;
25780;SDS011;13626;48.128;11.628;2022-12-18T13:33:44;31.90;;;12.65;;
25780;SDS011;13626;48.128;11.628;2022-12-18T13:36:32;27.77;;;12.18;;
25780;SDS011;13626;48.128;11.628;2022-12-18T13:39:10;34.20;;;12.15;;
25780;SDS011;13626;48.128;11.628;2022-12-18T13:41:38;27.63;;;11.15;;
25780;SDS011;13626;48.128;11.628;2022-12-18T13:44:20;34.55;;;12.85;;
25780;SDS011;13626;48.128;11.628;2022-12-18T13:46:50;32.63;;;12.70;;
25780;SDS011;13626;48.128;11.628;2022-12-18T13:51:52;31.63;;;13.43;;
25780;SDS011;13626;48.128;11.628;2022-12-18T13:54:36;31.60;;;12.48;;
25780;SDS011;13626;48.128;11.628;2022-12-18T13:57:04;33.17;;;12.35;;
25780;SDS011;13626;48.128;11.628;2022-12-18T13:59:34;29.20;;;11.63;;
25780;SDS011;13626;48.128;11.628;2022-12-18T14:02:18;33.20;;;12.27;;
25780;SDS011;13626;48.128;11.628;2022-12-18T14:04:48;32.08;;;13.10;;
25780;SDS011;13626;48.128;11.628;2022-12-18T14:07:22;27.85;;;10.80;;
25780;SDS011;13626;48.128;11.628;2022-12-18T14:09:52;29.95;;;11.90;;
25780;SDS011;13626;48.128;11.628;2022-12-18T14:12:37;28.63;;;11.18;;
25780;SDS011;13626;48.128;11.628;2022-12-18T14:15:41;31.70;;;11.82;;
25780;SDS011;13626;48.128;11.628;2022-12-18T14:18:53;30.75;;;11.35;;
25780;SDS011;13626;48.128;11.628;2022-12-18T14:21:00;29.02;;;11.82;;
25780;SDS011;13626;48.128;11.628;2022-12-18T14:25:56;29.63;;;12.48;;
25780;SDS011;13626;48.128;11.628;2022-12-18T14:28:31;28.92;;;11.75;;
25780;SDS011;13626;48.128;11.628;2022-12-18T14:30:58;27.15;;;11.52;;
25780;SDS011;13626;48.128;11.628;2022-12-18T14:33:27;30.73;;;12.55;;
25780;SDS011;13626;48.128;11.628;2022-12-18T14:35:58;32.25;;;12.48;;
25780;SDS011;13626;48.128;11.628;2022-12-18T14:40:58;28.30;;;12.02;;
25780;SDS011;13626;48.128;11.628;2022-12-18T14:43:26;29.08;;;12.60;;
25780;SDS011;13626;48.128;11.628;2022-12-18T14:45:54;32.65;;;12.52;;
25780;SDS011;13626;48.128;11.628;2022-12-18T14:53:32;29.60;;;12.05;;
25780;SDS011;13626;48.128;11.628;2022-12-18T14:55:59;29.83;;;12.43;;
25780;SDS011;13626;48.128;11.628;2022-12-18T14:58:26;30.90;;;11.85;;
25780;SDS011;13626;48.128;11.628;2022-12-18T15:00:54;30.05;;;12.98;;
25780;SDS011;13626;48.128;11.628;2022-12-18T15:03:22;31.52;;;12.15;;
25780;SDS011;13626;48.128;11.628;2022-12-18T15:05:50;33.42;;;12.95;;
25780;SDS011;13626;48.128;11.628;2022-12-18T15:08:31;32.75;;;11.68;;
25780;SDS011;13626;48.128;11.628;2022-12-18T15:11:01;35.20;;;12.90;;
25780;SDS011;13626;48.128;11.628;2022-12-18T15:13:34;31.75;;;12.35;;
25780;SDS011;13626;48.128;11.628;2022-12-18T15:16:01;30.83;;;12.52;;
25780;SDS011;13626;48.128;11.628;2022-12-18T15:18:30;32.58;;;12.57;;
25780;SDS011;13626;48.128;11.628;2022-12-18T15:20:59;32.03;;;12.40;;
25780;SDS011;13626;48.128;11.628;2022-12-18T15:23:35;32.78;;;12.10;;
25780;SDS011;13626;48.128;11.628;2022-12-18T15:26:05;32.25;;;12.82;;
25780;SDS011;13626;48.128;11.628;2022-12-18T15:28:39;31.10;;;11.73;;
25780;SDS011;13626;48.128;11.628;2022-12-18T15:33:44;32.67;;;12.98;;
25780;SDS011;13626;48.128;11.628;2022-12-18T15:36:16;30.90;;;13.07;;
25780;SDS011;13626;48.128;11.628;2022-12-18T15:38:52;34.85;;;12.25;;
25780;SDS011;13626;48.128;11.628;2022-12-18T15:41:21;30.38;;;12.43;;
25780;SDS011;13626;48.128;11.628;2022-12-18T15:43:50;36.47;;;13.90;;
25780;SDS011;13626;48.128;11.628;2022-12-18T15:46:19;31.75;;;12.60;;
25780;SDS011;13626;48.128;11.628;2022-12-18T15:48:47;30.77;;;12.73;;
25780;SDS011;13626;48.128;11.628;2022-12-18T15:53:46;32.50;;;13.63;;
25780;SDS011;13626;48.128;11.628;2022-12-18T15:56:15;30.92;;;12.60;;
25780;SDS011;13626;48.128;11.628;2022-12-18T15:59:01;36.95;;;13.70;;
25780;SDS011;13626;48.128;11.628;2022-12-18T16:01:29;35.03;;;13.73;;
25780;SDS011;13626;48.128;11.628;2022-12-18T16:04:09;35.88;;;13.52;;
25780;SDS011;13626;48.128;11.628;2022-12-18T16:06:37;33.20;;;12.52;;
25780;SDS011;13626;48.128;11.628;2022-12-18T16:09:24;31.80;;;12.70;;
25780;SDS011;13626;48.128;11.628;2022-12-18T16:11:51;38.72;;;13.40;;
25780;SDS011;13626;48.128;11.628;2022-12-18T16:14:20;37.35;;;13.85;;
25780;SDS011;13626;48.128;11.628;2022-12-18T16:16:49;36.63;;;14.20;;
25780;SDS011;13626;48.128;11.628;2022-12-18T16:19:18;37.25;;;14.48;;